createdAt,value
2022-12-18T00:00:09.892Z,20.00
2022-12-18T00:10:11.468Z,16.00
2022-12-18T00:20:16.921Z,33.77
2022-12-18T00:30:18.599Z,35.53
2022-12-18T00:40:20.099Z,41.10
2022-12-18T00:50:22.376Z,36.70
2022-12-18T01:00:24.196Z,38.33
2022-12-18T01:10:26.588Z,37.30
2022-12-18T01:20:28.092Z,33.37
2022-12-18T01:30:29.634Z,29.70
2022-12-18T01:40:31.158Z,27.30
2022-12-18T01:50:37.197Z,27.30
2022-12-18T02:00:38.987Z,29.95
2022-12-18T02:11:07.195Z,28.73
2022-12-18T02:21:35.114Z,22.23
2022-12-18T02:31:43.152Z,22.30
2022-12-18T02:41:44.950Z,13.00
2022-12-18T02:52:10.511Z,11.98
2022-12-18T03:02:36.322Z,12.67
2022-12-18T03:12:44.323Z,13.30
2022-12-18T03:22:51.870Z,12.40
2022-12-18T03:33:00.497Z,10.77
2022-12-18T03:43:11.930Z,10.53
2022-12-18T03:53:50.203Z,10.60
2022-12-18T04:03:52.987Z,11.07
2022-12-18T04:13:59.142Z,11.45
2022-12-18T04:24:00.677Z,12.33
2022-12-18T04:34:02.375Z,11.93
2022-12-18T04:44:04.977Z,12.20
2022-12-18T04:54:06.501Z,11.40
2022-12-18T05:04:08.233Z,12.63
2022-12-18T05:14:09.809Z,14.03
2022-12-18T05:24:11.362Z,16.23
2022-12-18T05:34:13.032Z,20.77
2022-12-18T05:44:15.201Z,23.80
2022-12-18T05:54:16.736Z,22.10
2022-12-18T06:04:18.305Z,33.58
2022-12-18T06:14:19.823Z,27.33
2022-12-18T06:24:21.397Z,28.97
2022-12-18T06:34:22.945Z,27.47
2022-12-18T06:44:24.433Z,27.50
2022-12-18T06:54:25.925Z,29.42
2022-12-18T07:04:30.722Z,32.50
2022-12-18T07:14:32.238Z,35.83
2022-12-18T07:24:34.539Z,36.83
2022-12-18T07:34:36.426Z,41.67
2022-12-18T07:44:38.574Z,34.53
2022-12-18T07:54:40.197Z,34.78
2022-12-18T08:04:41.744Z,35.53
2022-12-18T08:14:43.251Z,31.47
2022-12-18T08:24:44.901Z,28.83
2022-12-18T08:34:46.424Z,27.87
2022-12-18T08:44:47.928Z,31.93
2022-12-18T08:54:49.457Z,25.80
2022-12-18T09:04:56.977Z,26.00
2022-12-18T09:14:59.038Z,29.02
2022-12-18T09:25:00.582Z,28.63
2022-12-18T09:35:02.100Z,27.97
2022-12-18T09:45:04.416Z,32.25
2022-12-18T09:55:28.941Z,31.10
2022-12-18T10:06:12.805Z,29.70
2022-12-18T10:16:43.300Z,32.93
2022-12-18T10:26:45.794Z,29.77
2022-12-18T10:36:48.620Z,30.33
2022-12-18T10:46:54.713Z,28.77
2022-12-18T10:57:15.945Z,26.07
2022-12-18T11:07:17.536Z,29.48
2022-12-18T11:17:27.456Z,26.97
2022-12-18T11:27:30.252Z,30.93
2022-12-18T11:37:33.432Z,30.87
2022-12-18T11:47:52.750Z,31.13
2022-12-18T11:58:17.618Z,30.98
2022-12-18T12:08:38.830Z,32.30
2022-12-18T12:19:17.874Z,31.67
2022-12-18T12:29:43.761Z,31.40
2022-12-18T12:39:47.918Z,32.10
2022-12-18T12:49:51.648Z,31.27
2022-12-18T13:00:17.511Z,31.60
2022-12-18T13:10:19.321Z,33.97
2022-12-18T13:20:20.957Z,34.53
2022-12-18T13:30:34.448Z,31.70
2022-12-18T13:40:48.366Z,34.28
2022-12-18T13:51:05.391Z,35.93
2022-12-18T14:01:22.639Z,34.57
2022-12-18T14:11:26.333Z,39.03
2022-12-18T14:21:30.271Z,41.97
2022-12-18T14:31:32.329Z,39.40
2022-12-18T14:41:33.914Z,39.53
2022-12-18T14:51:37.138Z,40.37
2022-12-18T15:01:45.703Z,41.13
2022-12-18T15:11:48.120Z,47.37
2022-12-18T15:21:50.040Z,51.42
2022-12-18T15:32:05.856Z,52.77
2022-12-18T15:42:10.749Z,48.23
2022-12-18T15:52:14.520Z,51.38
2022-12-18T16:02:18.697Z,58.40
2022-12-18T16:12:23.428Z,53.23
2022-12-18T16:22:27.557Z,48.97
2022-12-18T16:32:29.094Z,49.60
2022-12-18T16:42:30.652Z,53.53
2022-12-18T16:52:32.183Z,48.37
2022-12-18T17:02:34.218Z,48.67
2022-12-18T17:12:35.954Z,49.15
2022-12-18T17:22:37.950Z,47.73
2022-12-18T17:32:39.521Z,52.67
2022-12-18T17:42:41.035Z,54.67
2022-12-18T17:52:42.575Z,63.20
2022-12-18T18:02:44.729Z,62.80
2022-12-18T18:12:46.344Z,70.77
2022-12-18T18:22:47.861Z,63.13
2022-12-18T18:32:49.381Z,61.53
2022-12-18T18:42:52.005Z,58.10
2022-12-18T18:52:53.517Z,53.40
2022-12-18T19:03:00.332Z,51.60
2022-12-18T19:13:02.244Z,56.83
2022-12-18T19:23:03.894Z,59.80
2022-12-18T19:33:33.967Z,51.53
2022-12-18T19:43:27.593Z,60.30
2022-12-18T19:53:29.167Z,58.15
2022-12-18T20:03:32.895Z,50.17
2022-12-18T20:13:36.221Z,55.70
2022-12-18T20:23:38.012Z,62.00
2022-12-18T20:33:40.121Z,51.77
2022-12-18T20:43:42.390Z,51.90
2022-12-18T20:53:45.867Z,64.43
2022-12-18T21:03:48.260Z,59.80
2022-12-18T21:13:49.863Z,65.25
2022-12-18T21:23:51.578Z,61.57
2022-12-18T21:33:55.260Z,68.23
2022-12-18T21:43:59.989Z,65.32
2022-12-18T21:54:02.448Z,60.87
2022-12-18T22:04:04.053Z,68.20
2022-12-18T22:14:05.689Z,72.07
2022-12-18T22:24:10.796Z,70.63
2022-12-18T22:34:12.416Z,75.40
2022-12-18T22:44:16.781Z,65.60
2022-12-18T22:54:20.392Z,64.47
2022-12-18T23:04:21.911Z,58.10
2022-12-18T23:14:24.833Z,57.87
2022-12-18T23:24:26.467Z,70.03
2022-12-18T23:34:27.974Z,61.90
2022-12-18T23:44:29.518Z,63.10
2022-12-18T23:54:33.520Z,68.43
